sensor_id;sensor_type;location;lat;lon;timestamp;pressure;altitude;pressure_sealevel;temperature;humidity
18987;BME280;9627;59.236;18.142;2022-09-01T00:01:52;102004.53;;;9.28;100.00
18987;BME280;9627;59.236;18.142;2022-09-01T00:04:20;102006.94;;;9.22;100.00
18987;BME280;9627;59.236;18.142;2022-09-01T00:06:51;102003.63;;;9.10;100.00
18987;BME280;9627;59.236;18.142;2022-09-01T00:09:19;102005.19;;;9.03;100.00
18987;BME280;9627;59.236;18.142;2022-09-01T00:11:47;102001.56;;;9.04;100.00
18987;BME280;9627;59.236;18.142;2022-09-01T00:14:15;102002.00;;;9.00;100.00
18987;BME280;9627;59.236;18.142;2022-09-01T00:16:41;102002.94;;;9.08;100.00
18987;BME280;9627;59.236;18.142;2022-09-01T00:19:10;101996.25;;;9.04;100.00
18987;BME280;9627;59.236;18.142;2022-09-01T00:21:38;101997.97;;;8.96;100.00
18987;BME280;9627;59.236;18.142;2022-09-01T00:24:06;101993.78;;;8.93;100.00
18987;BME280;9627;59.236;18.142;2022-09-01T00:26:33;101990.84;;;8.87;100.00
18987;BME280;9627;59.236;18.142;2022-09-01T00:29:01;101983.06;;;8.85;100.00
18987;BME280;9627;59.236;18.142;2022-09-01T00:31:29;101991.31;;;8.82;100.00
18987;BME280;9627;59.236;18.142;2022-09-01T00:33:56;101986.88;;;8.73;100.00
18987;BME280;9627;59.236;18.142;2022-09-01T00:36:25;101992.72;;;8.67;100.00
18987;BME280;9627;59.236;18.142;2022-09-01T00:38:51;101988.22;;;8.77;100.00
18987;BME280;9627;59.236;18.142;2022-09-01T00:41:18;101988.19;;;8.96;100.00
18987;BME280;9627;59.236;18.142;2022-09-01T00:43:46;101988.88;;;8.98;100.00
18987;BME280;9627;59.236;18.142;2022-09-01T00:46:15;101990.13;;;9.04;100.00
18987;BME280;9627;59.236;18.142;2022-09-01T00:48:42;101993.75;;;9.03;100.00
18987;BME280;9627;59.236;18.142;2022-09-01T00:51:09;101996.13;;;8.96;100.00
18987;BME280;9627;59.236;18.142;2022-09-01T00:53:38;101984.88;;;8.85;100.00
18987;BME280;9627;59.236;18.142;2022-09-01T00:56:07;101986.28;;;8.79;100.00
18987;BME280;9627;59.236;18.142;2022-09-01T00:58:34;101989.34;;;8.84;100.00
18987;BME280;9627;59.236;18.142;2022-09-01T01:01:02;101992.22;;;9.00;100.00
18987;BME280;9627;59.236;18.142;2022-09-01T01:03:29;101994.06;;;9.00;100.00
18987;BME280;9627;59.236;18.142;2022-09-01T01:05:57;101990.13;;;9.04;100.00
18987;BME280;9627;59.236;18.142;2022-09-01T01:08:28;101992.66;;;9.05;100.00
18987;BME280;9627;59.236;18.142;2022-09-01T01:11:00;101990.94;;;9.14;100.00
18987;BME280;9627;59.236;18.142;2022-09-01T01:13:28;101987.84;;;9.18;100.00
18987;BME280;9627;59.236;18.142;2022-09-01T01:15:56;101986.59;;;9.22;100.00
18987;BME280;9627;59.236;18.142;2022-09-01T01:18:23;101987.69;;;9.29;100.00
18987;BME280;9627;59.236;18.142;2022-09-01T01:20:56;101981.69;;;9.27;100.00
18987;BME280;9627;59.236;18.142;2022-09-01T01:23:42;101987.97;;;9.26;100.00
18987;BME280;9627;59.236;18.142;2022-09-01T01:26:12;101989.66;;;9.18;100.00
18987;BME280;9627;59.236;18.142;2022-09-01T01:28:40;101989.81;;;9.16;100.00
18987;BME280;9627;59.236;18.142;2022-09-01T01:31:09;101991.47;;;9.17;100.00
18987;BME280;9627;59.236;18.142;2022-09-01T01:33:38;101980.16;;;9.25;100.00
18987;BME280;9627;59.236;18.142;2022-09-01T01:36:07;101987.97;;;9.26;100.00
18987;BME280;9627;59.236;18.142;2022-09-01T01:38:36;101978.66;;;9.22;100.00
18987;BME280;9627;59.236;18.142;2022-09-01T01:41:05;101983.69;;;9.16;100.00
18987;BME280;9627;59.236;18.142;2022-09-01T01:43:33;101978.91;;;9.19;100.00
18987;BME280;9627;59.236;18.142;2022-09-01T01:46:02;101978.34;;;9.25;100.00
18987;BME280;9627;59.236;18.142;2022-09-01T01:48:31;101980.84;;;9.27;100.00
18987;BME280;9627;59.236;18.142;2022-09-01T01:50:59;101978.66;;;9.22;100.00
18987;BME280;9627;59.236;18.142;2022-09-01T01:53:27;101970.31;;;9.08;100.00
18987;BME280;9627;59.236;18.142;2022-09-01T01:55:54;101981.78;;;8.99;100.00
18987;BME280;9627;59.236;18.142;2022-09-01T01:58:22;101974.94;;;8.96;100.00
18987;BME280;9627;59.236;18.142;2022-09-01T02:00:52;101970.06;;;9.01;100.00
18987;BME280;9627;59.236;18.142;2022-09-01T02:03:20;101971.72;;;9.02;100.00
18987;BME280;9627;59.236;18.142;2022-09-01T02:05:49;101966.44;;;9.02;100.00
18987;BME280;9627;59.236;18.142;2022-09-01T02:08:17;101973.41;;;9.03;100.00
18987;BME280;9627;59.236;18.142;2022-09-01T02:10:46;101971.75;;;8.93;100.00
18987;BME280;9627;59.236;18.142;2022-09-01T02:13:14;101968.28;;;8.83;100.00
18987;BME280;9627;59.236;18.142;2022-09-01T02:15:43;101966.34;;;8.75;100.00
18987;BME280;9627;59.236;18.142;2022-09-01T02:18:15;101966.50;;;8.64;100.00
18987;BME280;9627;59.236;18.142;2022-09-01T02:20:42;101974.31;;;8.56;100.00
18987;BME280;9627;59.236;18.142;2022-09-01T02:23:10;101980.19;;;8.60;100.00
18987;BME280;9627;59.236;18.142;2022-09-01T02:25:42;101980.59;;;8.55;100.00
18987;BME280;9627;59.236;18.142;2022-09-01T02:28:10;101977.97;;;8.55;100.00
18987;BME280;9627;59.236;18.142;2022-09-01T02:30:40;101980.63;;;8.46;100.00
18987;BME280;9627;59.236;18.142;2022-09-01T02:33:07;101979.91;;;8.53;100.00
18987;BME280;9627;59.236;18.142;2022-09-01T02:35:36;101986.44;;;8.49;100.00
18987;BME280;9627;59.236;18.142;2022-09-01T02:38:03;101985.91;;;8.55;100.00
18987;BME280;9627;59.236;18.142;2022-09-01T02:40:31;101985.47;;;8.60;100.00
18987;BME280;9627;59.236;18.142;2022-09-01T02:42:59;101990.06;;;8.67;100.00
18987;BME280;9627;59.236;18.142;2022-09-01T02:45:27;101983.38;;;8.73;100.00
18987;BME280;9627;59.236;18.142;2022-09-01T02:47:54;101982.00;;;8.69;100.00
18987;BME280;9627;59.236;18.142;2022-09-01T02:50:21;101986.97;;;8.81;100.00
18987;BME280;9627;59.236;18.142;2022-09-01T02:52:50;101974.03;;;8.78;100.00
18987;BME280;9627;59.236;18.142;2022-09-01T02:55:19;101983.63;;;8.79;100.00
18987;BME280;9627;59.236;18.142;2022-09-01T02:57:47;101981.28;;;8.76;100.00
18987;BME280;9627;59.236;18.142;2022-09-01T03:00:15;101986.16;;;8.81;100.00
18987;BME280;9627;59.236;18.142;2022-09-01T03:02:50;101979.31;;;8.78;100.00
18987;BME280;9627;59.236;18.142;2022-09-01T03:05:18;101978.22;;;8.81;100.00
18987;BME280;9627;59.236;18.142;2022-09-01T03:10:33;101983.50;;;8.90;100.00
18987;BME280;9627;59.236;18.142;2022-09-01T03:13:03;101981.78;;;8.99;100.00
18987;BME280;9627;59.236;18.142;2022-09-01T03:15:32;101982.06;;;9.05;100.00
18987;BME280;9627;59.236;18.142;2022-09-01T03:18:01;101988.00;;;9.17;100.00
18987;BME280;9627;59.236;18.142;2022-09-01T03:20:29;101985.59;;;9.23;100.00
18987;BME280;9627;59.236;18.142;2022-09-01T03:22:58;101986.69;;;9.30;100.00
18987;BME280;9627;59.236;18.142;2022-09-01T03:25:25;101990.16;;;9.31;100.00
18987;BME280;9627;59.236;18.142;2022-09-01T03:27:56;101990.88;;;9.33;100.00
18987;BME280;9627;59.236;18.142;2022-09-01T03:30:26;101995.03;;;9.35;100.00
18987;BME280;9627;59.236;18.142;2022-09-01T03:32:54;101990.03;;;9.32;100.00
18987;BME280;9627;59.236;18.142;2022-09-01T03:35:21;101994.50;;;9.32;100.00
18987;BME280;9627;59.236;18.142;2022-09-01T03:37:48;101994.09;;;9.27;100.00
18987;BME280;9627;59.236;18.142;2022-09-01T03:40:16;101991.47;;;9.17;100.00
18987;BME280;9627;59.236;18.142;2022-09-01T03:42:44;101987.31;;;9.15;100.00
18987;BME280;9627;59.236;18.142;2022-09-01T03:45:12;101986.47;;;9.14;100.00
18987;BME280;9627;59.236;18.142;2022-09-01T03:47:40;101982.13;;;9.13;100.00
18987;BME280;9627;59.236;18.142;2022-09-01T03:50:09;101992.19;;;9.10;100.00
18987;BME280;9627;59.236;18.142;2022-09-01T03:52:42;101990.38;;;9.10;100.00
18987;BME280;9627;59.236;18.142;2022-09-01T03:55:09;101983.13;;;9.12;100.00
18987;BME280;9627;59.236;18.142;2022-09-01T03:57:36;101990.69;;;9.07;100.00
18987;BME280;9627;59.236;18.142;2022-09-01T04:00:07;101984.97;;;9.02;100.00
18987;BME280;9627;59.236;18.142;2022-09-01T04:02:41;101986.09;;;9.09;100.00
18987;BME280;9627;59.236;18.142;2022-09-01T04:05:08;101985.06;;;9.20;100.00
18987;BME280;9627;59.236;18.142;2022-09-01T04:07:35;101988.09;;;9.25;100.00
18987;BME280;9627;59.236;18.142;2022-09-01T04:10:02;101991.13;;;9.40;100.00
18987;BME280;9627;59.236;18.142;2022-09-01T04:12:29;102000.06;;;9.93;100.00
18987;BME280;9627;59.236;18.142;2022-09-01T04:14:57;101995.22;;;10.76;100.00
18987;BME280;9627;59.236;18.142;2022-09-01T04:17:25;101993.75;;;11.33;100.00
18987;BME280;9627;59.236;18.142;2022-09-01T04:20:10;101986.25;;;12.12;100.00
18987;BME280;9627;59.236;18.142;2022-09-01T04:22:39;101985.09;;;12.63;100.00
18987;BME280;9627;59.236;18.142;2022-09-01T04:25:07;101981.06;;;12.91;100.00
18987;BME280;9627;59.236;18.142;2022-09-01T04:27:34;101980.56;;;12.95;100.00
18987;BME280;9627;59.236;18.142;2022-09-01T04:30:05;101980.97;;;13.47;100.00
18987;BME280;9627;59.236;18.142;2022-09-01T04:32:34;101983.94;;;13.91;100.00
18987;BME280;9627;59.236;18.142;2022-09-01T04:35:02;101983.31;;;13.81;100.00
18987;BME280;9627;59.236;18.142;2022-09-01T04:37:31;101988.97;;;14.62;100.00
18987;BME280;9627;59.236;18.142;2022-09-01T04:40:00;101982.44;;;15.45;100.00
18987;BME280;9627;59.236;18.142;2022-09-01T04:42:28;101988.78;;;15.73;100.00
18987;BME280;9627;59.236;18.142;2022-09-01T04:44:56;101980.97;;;15.57;100.00
18987;BME280;9627;59.236;18.142;2022-09-01T04:47:24;101989.28;;;16.19;100.00
18987;BME280;9627;59.236;18.142;2022-09-01T04:49:55;101979.47;;;16.47;100.00
18987;BME280;9627;59.236;18.142;2022-09-01T04:52:24;101984.44;;;16.93;100.00
18987;BME280;9627;59.236;18.142;2022-09-01T04:54:53;101985.09;;;17.35;100.00
18987;BME280;9627;59.236;18.142;2022-09-01T04:57:21;101990.63;;;17.55;100.00
18987;BME280;9627;59.236;18.142;2022-09-01T04:59:54;101988.69;;;17.96;100.00
18987;BME280;9627;59.236;18.142;2022-09-01T05:02:22;101992.97;;;18.38;100.00
18987;BME280;9627;59.236;18.142;2022-09-01T05:04:51;101991.94;;;18.52;100.00
18987;BME280;9627;59.236;18.142;2022-09-01T05:07:18;101985.31;;;18.94;100.00
18987;BME280;9627;59.236;18.142;2022-09-01T05:09:45;101984.66;;;19.24;100.00
18987;BME280;9627;59.236;18.142;2022-09-01T05:12:15;101988.44;;;19.10;100.00
18987;BME280;9627;59.236;18.142;2022-09-01T05:14:47;101989.81;;;19.26;100.00
18987;BME280;9627;59.236;18.142;2022-09-01T05:17:14;101995.19;;;19.52;100.00
18987;BME280;9627;59.236;18.142;2022-09-01T05:19:41;101991.53;;;19.78;100.00
18987;BME280;9627;59.236;18.142;2022-09-01T05:22:09;101986.59;;;19.75;100.00
18987;BME280;9627;59.236;18.142;2022-09-01T05:24:37;101994.31;;;19.58;100.00
18987;BME280;9627;59.236;18.142;2022-09-01T05:27:06;101986.50;;;19.94;100.00
18987;BME280;9627;59.236;18.142;2022-09-01T05:29:36;101988.84;;;20.15;100.00
18987;BME280;9627;59.236;18.142;2022-09-01T05:32:03;101990.50;;;20.16;100.00
18987;BME280;9627;59.236;18.142;2022-09-01T05:34:34;101992.31;;;19.91;100.00
18987;BME280;9627;59.236;18.142;2022-09-01T05:37:02;101995.28;;;20.14;100.00
18987;BME280;9627;59.236;18.142;2022-09-01T05:39:30;101991.19;;;20.92;100.00
18987;BME280;9627;59.236;18.142;2022-09-01T05:41:57;102001.00;;;20.00;100.00
18987;BME280;9627;59.236;18.142;2022-09-01T05:44:25;101999.38;;;20.30;100.00
18987;BME280;9627;59.236;18.142;2022-09-01T05:46:54;101997.28;;;21.12;100.00
18987;BME280;9627;59.236;18.142;2022-09-01T05:49:24;101993.16;;;21.46;100.00
18987;BME280;9627;59.236;18.142;2022-09-01T05:51:55;101991.94;;;21.24;100.00
18987;BME280;9627;59.236;18.142;2022-09-01T05:54:23;101998.78;;;21.27;100.00
18987;BME280;9627;59.236;18.142;2022-09-01T05:56:51;101996.69;;;21.65;100.00
18987;BME280;9627;59.236;18.142;2022-09-01T05:59:22;101994.44;;;21.80;100.00
18987;BME280;9627;59.236;18.142;2022-09-01T06:01:50;101996.44;;;20.87;100.00
18987;BME280;9627;59.236;18.142;2022-09-01T06:04:20;101992.94;;;21.66;100.00
18987;BME280;9627;59.236;18.142;2022-09-01T06:06:47;101997.91;;;22.17;100.00
18987;BME280;9627;59.236;18.142;2022-09-01T06:09:15;101993.56;;;21.32;100.00
18987;BME280;9627;59.236;18.142;2022-09-01T06:11:43;102000.50;;;21.93;100.00
18987;BME280;9627;59.236;18.142;2022-09-01T06:14:11;101987.50;;;23.70;100.00
18987;BME280;9627;59.236;18.142;2022-09-01T06:16:39;101985.59;;;23.43;100.00
18987;BME280;9627;59.236;18.142;2022-09-01T06:19:07;101984.16;;;23.52;100.00
18987;BME280;9627;59.236;18.142;2022-09-01T06:21:36;101990.28;;;22.66;100.00
18987;BME280;9627;59.236;18.142;2022-09-01T06:24:03;101987.13;;;23.04;100.00
18987;BME280;9627;59.236;18.142;2022-09-01T06:26:31;101982.28;;;23.52;100.00
18987;BME280;9627;59.236;18.142;2022-09-01T06:28:59;101977.13;;;22.81;100.00
18987;BME280;9627;59.236;18.142;2022-09-01T06:31:28;101979.88;;;23.95;100.00
18987;BME280;9627;59.236;18.142;2022-09-01T06:33:58;101981.53;;;23.97;100.00
18987;BME280;9627;59.236;18.142;2022-09-01T06:36:26;101966.91;;;23.98;100.00
18987;BME280;9627;59.236;18.142;2022-09-01T06:38:58;101977.97;;;23.79;100.00
18987;BME280;9627;59.236;18.142;2022-09-01T06:41:26;101972.63;;;24.13;100.00
18987;BME280;9627;59.236;18.142;2022-09-01T06:43:53;101973.53;;;24.02;100.00
18987;BME280;9627;59.236;18.142;2022-09-01T06:46:21;101969.28;;;24.39;100.00
18987;BME280;9627;59.236;18.142;2022-09-01T06:48:53;101966.69;;;24.94;100.00
18987;BME280;9627;59.236;18.142;2022-09-01T06:51:23;101964.34;;;25.84;100.00
18987;BME280;9627;59.236;18.142;2022-09-01T06:53:52;101965.66;;;25.16;100.00
18987;BME280;9627;59.236;18.142;2022-09-01T06:56:25;101963.00;;;25.21;100.00
18987;BME280;9627;59.236;18.142;2022-09-01T06:58:54;101964.06;;;24.82;100.00
18987;BME280;9627;59.236;18.142;2022-09-01T07:01:21;101966.03;;;25.90;100.00
18987;BME280;9627;59.236;18.142;2022-09-01T07:03:50;101959.03;;;26.20;100.00
18987;BME280;9627;59.236;18.142;2022-09-01T07:06:18;101972.84;;;27.14;100.00
18987;BME280;9627;59.236;18.142;2022-09-01T07:08:47;101963.91;;;27.23;100.00
18987;BME280;9627;59.236;18.142;2022-09-01T07:11:15;101978.09;;;26.84;100.00
18987;BME280;9627;59.236;18.142;2022-09-01T07:13:51;101968.97;;;27.00;100.00
18987;BME280;9627;59.236;18.142;2022-09-01T07:16:19;101965.31;;;26.84;100.00
18987;BME280;9627;59.236;18.142;2022-09-01T07:18:47;101969.19;;;26.30;100.00
18987;BME280;9627;59.236;18.142;2022-09-01T07:21:14;101961.59;;;26.32;100.00
18987;BME280;9627;59.236;18.142;2022-09-01T07:23:41;101972.94;;;26.24;100.00
18987;BME280;9627;59.236;18.142;2022-09-01T07:26:09;101967.38;;;25.87;100.00
18987;BME280;9627;59.236;18.142;2022-09-01T07:28:39;101968.56;;;25.31;100.00
18987;BME280;9627;59.236;18.142;2022-09-01T07:31:07;101977.88;;;25.79;100.00
18987;BME280;9627;59.236;18.142;2022-09-01T07:33:34;101976.13;;;26.42;100.00
18987;BME280;9627;59.236;18.142;2022-09-01T07:36:01;101982.41;;;27.21;100.00
18987;BME280;9627;59.236;18.142;2022-09-01T07:38:29;101974.03;;;27.28;100.00
18987;BME280;9627;59.236;18.142;2022-09-01T07:40:56;101981.78;;;27.04;100.00
18987;BME280;9627;59.236;18.142;2022-09-01T07:43:24;101981.63;;;26.21;100.00
18987;BME280;9627;59.236;18.142;2022-09-01T07:45:54;101986.09;;;26.32;100.00
18987;BME280;9627;59.236;18.142;2022-09-01T07:48:26;101995.22;;;26.79;100.00
18987;BME280;9627;59.236;18.142;2022-09-01T07:50:54;101988.44;;;26.82;100.00
18987;BME280;9627;59.236;18.142;2022-09-01T07:53:22;101985.75;;;26.02;99.93
18987;BME280;9627;59.236;18.142;2022-09-01T07:55:50;101989.56;;;24.20;100.00
18987;BME280;9627;59.236;18.142;2022-09-01T07:58:18;101989.22;;;24.61;100.00
18987;BME280;9627;59.236;18.142;2022-09-01T08:00:46;101983.94;;;25.04;100.00
18987;BME280;9627;59.236;18.142;2022-09-01T08:03:14;101985.88;;;25.85;100.00
18987;BME280;9627;59.236;18.142;2022-09-01T08:05:43;101990.31;;;26.44;100.00
18987;BME280;9627;59.236;18.142;2022-09-01T08:08:11;101986.09;;;26.32;100.00
18987;BME280;9627;59.236;18.142;2022-09-01T08:10:38;101988.88;;;26.37;99.21
18987;BME280;9627;59.236;18.142;2022-09-01T08:13:06;101990.75;;;26.68;100.00
18987;BME280;9627;59.236;18.142;2022-09-01T08:15:33;101992.75;;;24.45;100.00
18987;BME280;9627;59.236;18.142;2022-09-01T08:18:00;101990.78;;;24.12;100.00
18987;BME280;9627;59.236;18.142;2022-09-01T08:20:27;101978.53;;;23.30;100.00
18987;BME280;9627;59.236;18.142;2022-09-01T08:22:56;101972.22;;;24.04;100.00
18987;BME280;9627;59.236;18.142;2022-09-01T08:25:23;101969.19;;;25.38;100.00
18987;BME280;9627;59.236;18.142;2022-09-01T08:27:50;101967.06;;;26.05;100.00
18987;BME280;9627;59.236;18.142;2022-09-01T08:30:17;101963.47;;;25.78;100.00
18987;BME280;9627;59.236;18.142;2022-09-01T08:32:44;101966.66;;;25.48;100.00
18987;BME280;9627;59.236;18.142;2022-09-01T08:35:12;101966.91;;;27.27;96.51
18987;BME280;9627;59.236;18.142;2022-09-01T08:37:40;101971.75;;;25.88;81.41
18987;BME280;9627;59.236;18.142;2022-09-01T08:40:09;101975.53;;;25.22;100.00
18987;BME280;9627;59.236;18.142;2022-09-01T08:42:43;101965.56;;;25.49;82.93
18987;BME280;9627;59.236;18.142;2022-09-01T08:45:14;101971.13;;;25.59;100.00
18987;BME280;9627;59.236;18.142;2022-09-01T08:47:45;101977.28;;;22.45;100.00
18987;BME280;9627;59.236;18.142;2022-09-01T08:50:13;101969.44;;;21.84;100.00
18987;BME280;9627;59.236;18.142;2022-09-01T08:52:40;101966.22;;;20.54;100.00
18987;BME280;9627;59.236;18.142;2022-09-01T08:55:13;101967.13;;;19.66;100.00
18987;BME280;9627;59.236;18.142;2022-09-01T08:57:42;101961.50;;;20.50;100.00
18987;BME280;9627;59.236;18.142;2022-09-01T09:00:11;101968.91;;;20.79;100.00
18987;BME280;9627;59.236;18.142;2022-09-01T09:02:42;101969.09;;;21.45;100.00
18987;BME280;9627;59.236;18.142;2022-09-01T09:05:20;101971.94;;;20.89;100.00
18987;BME280;9627;59.236;18.142;2022-09-01T09:07:54;101976.25;;;21.69;100.00
18987;BME280;9627;59.236;18.142;2022-09-01T09:10:27;101973.56;;;23.27;100.00
18987;BME280;9627;59.236;18.142;2022-09-01T09:13:00;101973.69;;;23.32;100.00
18987;BME280;9627;59.236;18.142;2022-09-01T09:15:35;101978.16;;;21.50;100.00
18987;BME280;9627;59.236;18.142;2022-09-01T09:18:07;101980.91;;;19.89;100.00
18987;BME280;9627;59.236;18.142;2022-09-01T09:20:37;101992.34;;;19.08;100.00
18987;BME280;9627;59.236;18.142;2022-09-01T09:23:06;101990.09;;;18.79;100.00
18987;BME280;9627;59.236;18.142;2022-09-01T09:25:39;101991.88;;;18.26;100.00
18987;BME280;9627;59.236;18.142;2022-09-01T09:28:06;101983.66;;;17.74;100.00
18987;BME280;9627;59.236;18.142;2022-09-01T09:30:34;101977.44;;;17.67;100.00
18987;BME280;9627;59.236;18.142;2022-09-01T09:33:01;101980.38;;;18.65;100.00
18987;BME280;9627;59.236;18.142;2022-09-01T09:35:30;101971.38;;;20.80;100.00
18987;BME280;9627;59.236;18.142;2022-09-01T09:38:14;101970.06;;;21.50;100.00
18987;BME280;9627;59.236;18.142;2022-09-01T09:43:34;101958.72;;;20.56;100.00
18987;BME280;9627;59.236;18.142;2022-09-01T09:46:23;101962.50;;;22.71;100.00
18987;BME280;9627;59.236;18.142;2022-09-01T09:49:05;101946.59;;;23.32;100.00
18987;BME280;9627;59.236;18.142;2022-09-01T09:51:32;101942.75;;;23.17;100.00
18987;BME280;9627;59.236;18.142;2022-09-01T09:54:09;101955.56;;;22.98;100.00
18987;BME280;9627;59.236;18.142;2022-09-01T09:56:37;101956.97;;;23.12;100.00
18987;BME280;9627;59.236;18.142;2022-09-01T09:59:16;101952.50;;;23.69;100.00
18987;BME280;9627;59.236;18.142;2022-09-01T10:01:44;101953.63;;;23.56;100.00
18987;BME280;9627;59.236;18.142;2022-09-01T10:04:29;101956.16;;;23.12;100.00
18987;BME280;9627;59.236;18.142;2022-09-01T10:06:57;101945.34;;;22.88;100.00
18987;BME280;9627;59.236;18.142;2022-09-01T10:09:32;101949.28;;;23.83;100.00
18987;BME280;9627;59.236;18.142;2022-09-01T10:11:59;101945.53;;;24.96;100.00
18987;BME280;9627;59.236;18.142;2022-09-01T10:14:31;101943.72;;;25.39;100.00
18987;BME280;9627;59.236;18.142;2022-09-01T10:17:00;101941.66;;;24.58;100.00
18987;BME280;9627;59.236;18.142;2022-09-01T10:19:28;101950.22;;;22.45;100.00
18987;BME280;9627;59.236;18.142;2022-09-01T10:21:55;101957.41;;;21.62;100.00
18987;BME280;9627;59.236;18.142;2022-09-01T10:24:23;101950.31;;;21.13;100.00
18987;BME280;9627;59.236;18.142;2022-09-01T10:26:55;101948.88;;;20.44;100.00
18987;BME280;9627;59.236;18.142;2022-09-01T10:29:23;101959.19;;;20.22;100.00
18987;BME280;9627;59.236;18.142;2022-09-01T10:31:54;101954.25;;;19.75;100.00
18987;BME280;9627;59.236;18.142;2022-09-01T10:34:22;101961.84;;;19.47;100.00
18987;BME280;9627;59.236;18.142;2022-09-01T10:36:49;101965.72;;;19.57;100.00
18987;BME280;9627;59.236;18.142;2022-09-01T10:39:17;101967.25;;;19.40;100.00
18987;BME280;9627;59.236;18.142;2022-09-01T10:41:51;101966.88;;;18.97;100.00
18987;BME280;9627;59.236;18.142;2022-09-01T10:44:21;101977.25;;;18.94;100.00
18987;BME280;9627;59.236;18.142;2022-09-01T10:46:49;101979.91;;;19.07;100.00
18987;BME280;9627;59.236;18.142;2022-09-01T10:49:20;101989.25;;;18.65;100.00
18987;BME280;9627;59.236;18.142;2022-09-01T10:51:47;101993.22;;;18.63;100.00
18987;BME280;9627;59.236;18.142;2022-09-01T10:57:00;101987.00;;;18.62;100.00
18987;BME280;9627;59.236;18.142;2022-09-01T10:59:28;101997.34;;;18.59;100.00
18987;BME280;9627;59.236;18.142;2022-09-01T11:02:08;102001.44;;;18.48;100.00
18987;BME280;9627;59.236;18.142;2022-09-01T11:07:32;101988.78;;;19.40;100.00
18987;BME280;9627;59.236;18.142;2022-09-01T11:10:08;101979.66;;;19.48;100.00
18987;BME280;9627;59.236;18.142;2022-09-01T11:12:42;101979.03;;;20.34;100.00
18987;BME280;9627;59.236;18.142;2022-09-01T11:17:53;101970.69;;;20.67;100.00
18987;BME280;9627;59.236;18.142;2022-09-01T11:20:22;101977.50;;;20.69;100.00
18987;BME280;9627;59.236;18.142;2022-09-01T11:22:59;101977.75;;;20.37;100.00
18987;BME280;9627;59.236;18.142;2022-09-01T11:25:31;101971.28;;;19.69;100.00
18987;BME280;9627;59.236;18.142;2022-09-01T11:28:09;101974.66;;;20.02;100.00
18987;BME280;9627;59.236;18.142;2022-09-01T11:30:39;101969.19;;;20.95;100.00
18987;BME280;9627;59.236;18.142;2022-09-01T11:36:05;101958.03;;;21.82;100.00
18987;BME280;9627;59.236;18.142;2022-09-01T11:38:37;101956.94;;;22.01;100.00
18987;BME280;9627;59.236;18.142;2022-09-01T11:41:18;101958.97;;;22.17;100.00
18987;BME280;9627;59.236;18.142;2022-09-01T11:43:47;101961.56;;;22.77;100.00
18987;BME280;9627;59.236;18.142;2022-09-01T11:46:15;101959.13;;;22.87;100.00
18987;BME280;9627;59.236;18.142;2022-09-01T11:48:47;101952.25;;;22.08;100.00
18987;BME280;9627;59.236;18.142;2022-09-01T11:51:15;101965.72;;;23.02;100.00
18987;BME280;9627;59.236;18.142;2022-09-01T11:53:43;101962.16;;;21.85;100.00
18987;BME280;9627;59.236;18.142;2022-09-01T11:56:12;101966.56;;;21.07;100.00
18987;BME280;9627;59.236;18.142;2022-09-01T11:58:39;101984.22;;;19.91;100.00
18987;BME280;9627;59.236;18.142;2022-09-01T12:01:11;101987.13;;;18.34;100.00
18987;BME280;9627;59.236;18.142;2022-09-01T12:03:39;101985.22;;;18.02;100.00
18987;BME280;9627;59.236;18.142;2022-09-01T12:06:07;101986.63;;;17.92;100.00
18987;BME280;9627;59.236;18.142;2022-09-01T12:08:36;101984.94;;;17.37;100.00
18987;BME280;9627;59.236;18.142;2022-09-01T12:11:06;101976.41;;;17.27;100.00
18987;BME280;9627;59.236;18.142;2022-09-01T12:13:34;101975.97;;;17.64;100.00
18987;BME280;9627;59.236;18.142;2022-09-01T12:16:03;101984.56;;;17.46;100.00
18987;BME280;9627;59.236;18.142;2022-09-01T12:18:31;101980.84;;;17.95;100.00
18987;BME280;9627;59.236;18.142;2022-09-01T12:20:59;101970.16;;;19.25;100.00
18987;BME280;9627;59.236;18.142;2022-09-01T12:23:27;101963.41;;;20.11;100.00
18987;BME280;9627;59.236;18.142;2022-09-01T12:25:55;101959.25;;;21.32;100.00
18987;BME280;9627;59.236;18.142;2022-09-01T12:28:25;101955.13;;;20.87;100.00
18987;BME280;9627;59.236;18.142;2022-09-01T12:30:55;101959.72;;;19.55;100.00
18987;BME280;9627;59.236;18.142;2022-09-01T12:33:22;101959.09;;;20.04;100.00
18987;BME280;9627;59.236;18.142;2022-09-01T12:35:50;101956.38;;;20.84;100.00
18987;BME280;9627;59.236;18.142;2022-09-01T12:38:22;101957.38;;;20.09;100.00
18987;BME280;9627;59.236;18.142;2022-09-01T12:40:49;101960.66;;;20.18;100.00
18987;BME280;9627;59.236;18.142;2022-09-01T12:43:32;101953.41;;;20.18;100.00
18987;BME280;9627;59.236;18.142;2022-09-01T12:46:00;101958.09;;;19.54;100.00
18987;BME280;9627;59.236;18.142;2022-09-01T12:48:29;101963.63;;;18.69;100.00
18987;BME280;9627;59.236;18.142;2022-09-01T12:50:57;101965.63;;;18.15;100.00
18987;BME280;9627;59.236;18.142;2022-09-01T12:53:28;101946.94;;;17.87;100.00
18987;BME280;9627;59.236;18.142;2022-09-01T12:55:57;101954.19;;;17.93;100.00
18987;BME280;9627;59.236;18.142;2022-09-01T12:58:25;101953.75;;;17.83;100.00
18987;BME280;9627;59.236;18.142;2022-09-01T13:00:56;101947.06;;;17.66;100.00
18987;BME280;9627;59.236;18.142;2022-09-01T13:03:23;101957.69;;;17.87;100.00
18987;BME280;9627;59.236;18.142;2022-09-01T13:05:52;101953.16;;;17.88;100.00
18987;BME280;9627;59.236;18.142;2022-09-01T13:08:20;101949.88;;;17.99;100.00
18987;BME280;9627;59.236;18.142;2022-09-01T13:10:50;101938.88;;;17.81;100.00